createdAt,value
2023-03-02T00:02:02.283Z,17.90
2023-03-02T00:04:54.539Z,17.90
2023-03-02T00:07:44.319Z,17.90
2023-03-02T00:10:32.908Z,17.80
2023-03-02T00:13:21.585Z,17.80
2023-03-02T00:16:09.867Z,17.90
2023-03-02T00:18:58.299Z,17.80
2023-03-02T00:21:46.672Z,17.80
2023-03-02T00:24:36.226Z,17.80
2023-03-02T00:27:24.759Z,17.80
2023-03-02T00:30:14.707Z,17.70
2023-03-02T00:33:02.993Z,17.80
2023-03-02T00:35:51.245Z,17.70
2023-03-02T00:38:39.550Z,17.70
2023-03-02T00:41:29.174Z,17.70
2023-03-02T00:44:18.527Z,17.70
2023-03-02T00:47:06.952Z,17.60
2023-03-02T00:49:55.258Z,17.60
2023-03-02T00:52:43.602Z,17.60
2023-03-02T00:55:31.881Z,17.50
2023-03-02T00:58:22.377Z,17.50
2023-03-02T01:01:12.825Z,17.50
2023-03-02T01:04:01.180Z,17.50
2023-03-02T01:06:49.395Z,17.50
2023-03-02T01:09:38.280Z,17.40
2023-03-02T01:12:26.631Z,17.40
2023-03-02T01:15:16.825Z,17.40
2023-03-02T01:18:05.244Z,17.40
2023-03-02T01:21:02.805Z,17.30
2023-03-02T01:23:51.783Z,17.30
2023-03-02T01:26:40.005Z,17.30
2023-03-02T01:29:28.429Z,17.30
2023-03-02T01:32:18.070Z,17.30
2023-03-02T01:35:07.344Z,17.30
2023-03-02T01:37:55.671Z,17.30
2023-03-02T01:40:43.996Z,17.20
2023-03-02T01:43:32.353Z,17.20
2023-03-02T01:46:22.520Z,17.20
2023-03-02T01:49:15.773Z,17.20
2023-03-02T01:52:04.433Z,17.20
2023-03-02T01:54:57.386Z,17.10
2023-03-02T01:57:48.933Z,17.10
2023-03-02T02:00:40.263Z,17.10
2023-03-02T02:03:31.778Z,17.00
2023-03-02T02:06:25.750Z,17.10
2023-03-02T02:09:18.392Z,17.00
2023-03-02T02:12:07.143Z,17.00
2023-03-02T02:15:00.580Z,17.00
2023-03-02T02:17:49.748Z,17.10
2023-03-02T02:20:40.806Z,17.00
2023-03-02T02:23:38.366Z,17.00
2023-03-02T02:26:30.209Z,17.00
2023-03-02T02:29:23.290Z,17.00
2023-03-02T02:32:15.621Z,17.00
2023-03-02T02:35:08.652Z,17.00
2023-03-02T02:38:00.367Z,16.90
2023-03-02T02:40:53.578Z,16.90
2023-03-02T02:43:43.433Z,16.90
2023-03-02T02:46:34.027Z,16.80
2023-03-02T02:49:30.633Z,16.80
2023-03-02T02:52:23.299Z,16.80
2023-03-02T02:55:17.105Z,16.80
2023-03-02T02:58:14.701Z,16.80
2023-03-02T03:01:04.886Z,16.80
2023-03-02T03:03:55.582Z,16.80
2023-03-02T03:06:52.026Z,16.70
2023-03-02T03:09:40.450Z,16.70
2023-03-02T03:12:31.694Z,16.70
2023-03-02T03:15:20.483Z,16.70
2023-03-02T03:18:10.088Z,16.60
2023-03-02T03:20:58.366Z,16.60
2023-03-02T03:23:46.647Z,16.60
2023-03-02T03:26:34.972Z,16.60
2023-03-02T03:29:24.866Z,16.60
2023-03-02T03:32:13.240Z,16.60
2023-03-02T03:35:03.582Z,16.50
2023-03-02T03:37:52.045Z,16.50
2023-03-02T03:40:40.440Z,16.50
2023-03-02T03:43:29.081Z,16.50
2023-03-02T03:46:17.772Z,16.50
2023-03-02T03:49:06.366Z,16.50
2023-03-02T03:51:56.286Z,16.50
2023-03-02T03:54:44.530Z,16.40
2023-03-02T03:57:32.836Z,16.40
2023-03-02T04:00:21.836Z,16.40
2023-03-02T04:03:10.090Z,16.40
2023-03-02T04:05:58.369Z,16.40
2023-03-02T04:08:48.036Z,16.40
2023-03-02T04:11:39.211Z,16.30
2023-03-02T04:14:27.547Z,16.30
2023-03-02T04:17:15.886Z,16.30
2023-03-02T04:20:07.724Z,16.40
2023-03-02T04:22:57.461Z,16.30
2023-03-02T04:25:47.126Z,16.30
2023-03-02T04:28:35.432Z,16.30
2023-03-02T04:31:24.086Z,16.30
2023-03-02T04:34:12.615Z,16.30
2023-03-02T04:37:01.396Z,16.30
2023-03-02T04:39:51.648Z,16.20
2023-03-02T04:42:41.846Z,16.30
2023-03-02T04:45:30.218Z,16.20
2023-03-02T04:48:18.478Z,16.20
2023-03-02T04:51:07.160Z,16.20
2023-03-02T04:53:57.634Z,16.20
2023-03-02T04:56:48.548Z,16.20
2023-03-02T04:59:38.160Z,16.20
2023-03-02T05:02:26.598Z,16.20
2023-03-02T05:05:18.704Z,16.10
2023-03-02T05:08:07.220Z,16.10
2023-03-02T05:10:55.532Z,16.10
2023-03-02T05:13:43.753Z,16.10
2023-03-02T05:16:36.887Z,16.10
2023-03-02T05:19:25.489Z,16.10
2023-03-02T05:22:13.769Z,16.10
2023-03-02T05:25:02.166Z,16.10
2023-03-02T05:27:50.592Z,16.10
2023-03-02T05:30:38.827Z,16.00
2023-03-02T05:33:28.658Z,16.00
2023-03-02T05:36:19.297Z,16.00
2023-03-02T05:39:09.373Z,16.00
2023-03-02T05:41:57.721Z,16.00
2023-03-02T05:44:46.021Z,15.90
2023-03-02T05:47:34.232Z,15.90
2023-03-02T05:50:24.011Z,15.90
2023-03-02T05:53:12.265Z,15.90
2023-03-02T05:56:00.460Z,15.80
2023-03-02T05:58:48.784Z,15.80
2023-03-02T06:01:37.250Z,15.80
2023-03-02T06:04:25.839Z,16.00
2023-03-02T06:07:15.536Z,16.10
2023-03-02T06:10:04.017Z,16.20
2023-03-02T06:12:52.563Z,16.30
2023-03-02T06:15:40.863Z,16.40
2023-03-02T06:18:29.234Z,16.50
2023-03-02T06:21:17.637Z,16.50
2023-03-02T06:24:07.924Z,16.30
2023-03-02T06:26:56.164Z,16.30
2023-03-02T06:29:44.559Z,16.30
2023-03-02T06:32:34.466Z,16.30
2023-03-02T06:35:23.986Z,16.30
2023-03-02T06:38:12.883Z,16.20
2023-03-02T06:41:02.642Z,16.20
2023-03-02T06:43:50.963Z,16.30
2023-03-02T06:46:40.129Z,16.30
2023-03-02T06:49:28.332Z,16.20
2023-03-02T06:52:16.841Z,16.20
2023-03-02T06:55:06.015Z,16.20
2023-03-02T06:57:55.718Z,16.20
2023-03-02T07:00:43.981Z,16.30
2023-03-02T07:03:32.396Z,16.30
2023-03-02T07:06:20.893Z,16.30
2023-03-02T07:09:09.177Z,16.30
2023-03-02T07:11:57.753Z,16.30
2023-03-02T07:14:47.382Z,16.30
2023-03-02T07:17:35.745Z,16.40
2023-03-02T07:20:24.350Z,16.40
2023-03-02T07:23:12.829Z,16.40
2023-03-02T07:26:01.090Z,16.40
2023-03-02T07:28:49.500Z,16.40
2023-03-02T07:31:39.382Z,16.50
2023-03-02T07:34:28.747Z,16.50
2023-03-02T07:37:16.993Z,16.60
2023-03-02T07:40:06.651Z,16.50
2023-03-02T07:42:55.179Z,16.70
2023-03-02T07:45:43.538Z,16.70
2023-03-02T07:48:34.476Z,16.80
2023-03-02T07:51:23.021Z,16.80
2023-03-02T07:54:11.260Z,16.80
2023-03-02T07:56:59.517Z,16.80
2023-03-02T07:59:47.964Z,16.80
2023-03-02T08:02:36.216Z,16.80
2023-03-02T08:05:26.199Z,16.80
2023-03-02T08:08:14.512Z,16.90
2023-03-02T08:11:06.199Z,16.90
2023-03-02T08:13:54.650Z,16.90
2023-03-02T08:16:42.940Z,17.00
2023-03-02T08:19:31.386Z,17.10
2023-03-02T08:22:21.045Z,17.20
2023-03-02T08:25:09.827Z,17.20
2023-03-02T08:27:59.598Z,17.30
2023-03-02T08:30:57.379Z,17.40
2023-03-02T08:33:46.966Z,17.50
2023-03-02T08:36:35.526Z,17.60
2023-03-02T08:39:25.361Z,17.80
2023-03-02T08:42:13.688Z,18.10
2023-03-02T08:45:01.966Z,18.40
2023-03-02T08:47:50.405Z,18.50
2023-03-02T08:50:38.614Z,18.70
2023-03-02T08:53:27.732Z,18.70
2023-03-02T08:56:19.675Z,18.80
2023-03-02T08:59:11.058Z,19.00
2023-03-02T09:02:00.714Z,19.10
2023-03-02T09:04:49.218Z,19.10
2023-03-02T09:07:37.516Z,19.20
2023-03-02T09:10:26.201Z,19.20
2023-03-02T09:13:15.812Z,19.30
2023-03-02T09:16:04.543Z,19.40
2023-03-02T09:18:53.236Z,19.60
2023-03-02T09:21:41.434Z,19.80
2023-03-02T09:24:29.794Z,20.30
2023-03-02T09:27:18.007Z,20.80
2023-03-02T09:30:09.266Z,21.10
2023-03-02T09:32:57.568Z,21.20
2023-03-02T09:35:46.681Z,21.30
2023-03-02T09:38:35.123Z,21.60
2023-03-02T09:41:58.031Z,21.50
2023-03-02T09:45:04.306Z,21.50
2023-03-02T09:48:06.505Z,21.60
2023-03-02T09:51:03.286Z,21.60
2023-03-02T09:53:58.851Z,21.50
2023-03-02T09:56:50.673Z,21.50
2023-03-02T09:59:43.657Z,21.40
2023-03-02T10:02:37.286Z,21.40
2023-03-02T10:05:30.419Z,21.30
2023-03-02T10:08:21.871Z,21.40
2023-03-02T10:11:17.773Z,21.30
2023-03-02T10:14:13.605Z,21.20
2023-03-02T10:17:18.426Z,21.20
2023-03-02T10:20:12.670Z,21.40
2023-03-02T10:23:14.504Z,21.30
2023-03-02T10:26:12.071Z,21.30
2023-03-02T10:29:05.051Z,21.20
2023-03-02T10:31:58.833Z,21.20
2023-03-02T10:34:48.047Z,21.30
2023-03-02T10:37:36.427Z,21.30
2023-03-02T10:40:41.549Z,21.30
2023-03-02T10:43:33.464Z,21.30
2023-03-02T10:46:21.913Z,21.40
2023-03-02T10:49:26.504Z,21.70
2023-03-02T10:52:16.776Z,21.80
2023-03-02T10:55:07.882Z,21.80
2023-03-02T10:58:06.428Z,22.00
2023-03-02T11:00:59.838Z,22.20
2023-03-02T11:03:57.169Z,22.30
2023-03-02T11:06:45.624Z,22.40
2023-03-02T11:09:33.997Z,22.60
2023-03-02T11:12:22.437Z,22.80
2023-03-02T11:15:23.716Z,23.30
2023-03-02T11:18:25.459Z,23.50
2023-03-02T11:21:18.327Z,23.90
2023-03-02T11:24:14.147Z,24.20
2023-03-02T11:27:07.189Z,24.50
2023-03-02T11:30:00.369Z,24.90
2023-03-02T11:33:00.795Z,25.40
2023-03-02T11:35:54.471Z,25.80
2023-03-02T11:38:48.680Z,26.10
2023-03-02T11:41:37.198Z,26.30
2023-03-02T11:44:27.527Z,27.00
2023-03-02T11:47:17.129Z,27.20
2023-03-02T11:50:11.638Z,27.50
2023-03-02T11:53:02.625Z,27.80
2023-03-02T11:55:51.578Z,28.00
2023-03-02T11:58:40.723Z,28.30
2023-03-02T12:01:29.943Z,28.60
2023-03-02T12:04:28.430Z,28.90
2023-03-02T12:07:24.074Z,29.20
2023-03-02T12:10:28.733Z,29.40
2023-03-02T12:13:21.238Z,29.60
2023-03-02T12:16:21.360Z,29.80
2023-03-02T12:19:15.295Z,30.10
2023-03-02T12:22:07.002Z,30.30
2023-03-02T12:25:05.517Z,30.50
2023-03-02T12:27:55.464Z,30.70
2023-03-02T12:30:43.842Z,30.80
2023-03-02T12:33:32.194Z,31.10
2023-03-02T12:36:27.277Z,31.20
2023-03-02T12:39:27.143Z,31.40
2023-03-02T12:42:45.105Z,31.50
2023-03-02T12:45:46.940Z,31.70
2023-03-02T12:48:44.469Z,31.80
2023-03-02T12:51:46.279Z,32.00
2023-03-02T12:54:35.835Z,32.10
2023-03-02T12:57:25.487Z,32.20
2023-03-02T13:00:18.427Z,32.30
2023-03-02T13:03:07.285Z,32.40
2023-03-02T13:06:03.560Z,32.40
2023-03-02T13:08:54.776Z,32.60
2023-03-02T13:11:44.518Z,32.70
2023-03-02T13:14:34.331Z,32.80
2023-03-02T13:17:25.329Z,32.90
2023-03-02T13:20:15.793Z,32.90
2023-03-02T13:23:05.088Z,32.90
2023-03-02T13:25:55.343Z,33.00
2023-03-02T13:28:43.676Z,33.00
2023-03-02T13:31:34.160Z,33.10
2023-03-02T13:34:24.514Z,33.20
2023-03-02T13:37:22.709Z,33.20
2023-03-02T13:40:34.516Z,33.30
2023-03-02T13:43:36.104Z,33.40
2023-03-02T13:46:30.246Z,33.30
2023-03-02T13:49:29.839Z,33.30
2023-03-02T13:52:24.086Z,33.30
2023-03-02T13:55:15.953Z,33.40
2023-03-02T13:58:04.198Z,33.30
2023-03-02T14:00:52.906Z,33.30
2023-03-02T14:03:41.166Z,33.30
2023-03-02T14:06:31.772Z,33.30
2023-03-02T14:09:21.226Z,33.10
2023-03-02T14:12:09.737Z,33.10
2023-03-02T14:15:01.459Z,33.00
2023-03-02T14:17:50.360Z,33.00
2023-03-02T14:20:38.601Z,33.00
2023-03-02T14:23:28.915Z,32.90
2023-03-02T14:26:34.127Z,32.90
2023-03-02T14:29:26.228Z,32.80
2023-03-02T14:32:17.619Z,32.80
2023-03-02T14:35:09.341Z,32.60
2023-03-02T14:37:57.734Z,32.40
2023-03-02T14:40:47.545Z,32.30
2023-03-02T14:43:35.941Z,32.20
2023-03-02T14:46:24.311Z,32.00
2023-03-02T14:49:12.664Z,31.90
2023-03-02T14:52:06.274Z,31.70
2023-03-02T14:54:56.957Z,31.40
2023-03-02T14:57:47.294Z,31.10
2023-03-02T15:00:35.688Z,30.90
2023-03-02T15:03:25.748Z,30.60
2023-03-02T15:06:28.413Z,30.40
2023-03-02T15:09:16.836Z,30.20
2023-03-02T15:12:05.616Z,30.00
2023-03-02T15:14:55.271Z,29.80
2023-03-02T15:17:43.658Z,29.60
2023-03-02T15:20:32.165Z,29.40
2023-03-02T15:23:20.464Z,29.30
2023-03-02T15:26:08.909Z,29.10
2023-03-02T15:28:57.205Z,28.90
2023-03-02T15:31:47.626Z,28.70
2023-03-02T15:34:36.540Z,28.50
2023-03-02T15:37:24.799Z,28.40
2023-03-02T15:40:13.665Z,28.20
2023-03-02T15:43:02.178Z,27.90
2023-03-02T15:45:50.474Z,27.80
2023-03-02T15:48:40.391Z,27.60
2023-03-02T15:51:28.581Z,27.40
2023-03-02T15:54:17.305Z,27.20
2023-03-02T15:57:05.866Z,27.00
2023-03-02T15:59:54.222Z,26.80
2023-03-02T16:02:42.565Z,26.60
2023-03-02T16:05:32.417Z,26.40
2023-03-02T16:08:20.736Z,26.20
2023-03-02T16:11:11.421Z,26.00
2023-03-02T16:13:59.898Z,25.80
2023-03-02T16:16:48.379Z,25.60
2023-03-02T16:19:37.772Z,25.40
2023-03-02T16:22:27.401Z,25.30
2023-03-02T16:25:15.898Z,25.00
2023-03-02T16:28:04.436Z,24.80
2023-03-02T16:30:52.674Z,24.70
2023-03-02T16:33:42.811Z,24.50
2023-03-02T16:36:31.205Z,24.30
2023-03-02T16:39:20.846Z,24.10
2023-03-02T16:42:09.227Z,23.90
2023-03-02T16:44:57.582Z,23.80
2023-03-02T16:47:46.021Z,23.60
2023-03-02T16:50:34.656Z,23.50
2023-03-02T16:53:22.935Z,23.30
2023-03-02T16:56:14.322Z,23.20
2023-03-02T16:59:02.620Z,23.00
2023-03-02T17:01:51.285Z,22.90
2023-03-02T17:04:39.929Z,22.80
2023-03-02T17:07:28.405Z,22.70
2023-03-02T17:10:19.208Z,22.50
2023-03-02T17:13:09.601Z,22.30
2023-03-02T17:15:58.774Z,22.20
2023-03-02T17:18:47.793Z,21.90
2023-03-02T17:21:36.196Z,21.80
2023-03-02T17:24:24.552Z,21.50
2023-03-02T17:27:24.150Z,21.30
2023-03-02T17:30:16.102Z,21.20
2023-03-02T17:33:04.536Z,21.10
2023-03-02T17:35:52.728Z,20.90
2023-03-02T17:38:41.523Z,20.80
2023-03-02T17:41:29.729Z,20.70
2023-03-02T17:44:18.183Z,20.60
2023-03-02T17:47:08.805Z,20.30
2023-03-02T17:49:58.402Z,20.20
2023-03-02T17:52:46.635Z,20.10
2023-03-02T17:55:34.828Z,20.00
2023-03-02T17:58:23.368Z,19.90
2023-03-02T18:01:15.860Z,19.80
2023-03-02T18:04:06.058Z,19.80
2023-03-02T18:06:54.519Z,19.60
2023-03-02T18:09:42.916Z,19.40
2023-03-02T18:12:31.293Z,19.20
2023-03-02T18:15:20.525Z,19.10
2023-03-02T18:18:09.090Z,19.00
2023-03-02T18:20:58.785Z,19.00
2023-03-02T18:23:48.036Z,19.00
2023-03-02T18:26:36.484Z,19.00
2023-03-02T18:29:25.180Z,18.90
2023-03-02T18:32:13.897Z,18.80
2023-03-02T18:35:02.403Z,18.70
2023-03-02T18:37:52.191Z,18.70
2023-03-02T18:40:40.519Z,18.60
2023-03-02T18:43:29.722Z,18.50
2023-03-02T18:46:20.588Z,18.50
2023-03-02T18:49:11.784Z,18.50
2023-03-02T18:52:05.798Z,18.30
2023-03-02T18:54:57.887Z,18.30
2023-03-02T18:57:46.497Z,18.20
2023-03-02T19:00:36.357Z,18.20
2023-03-02T19:03:24.963Z,18.10
2023-03-02T19:06:14.971Z,18.00
2023-03-02T19:09:03.415Z,18.00
2023-03-02T19:11:53.231Z,17.90
2023-03-02T19:14:42.739Z,17.90
2023-03-02T19:17:31.080Z,17.80
2023-03-02T19:20:21.090Z,17.70
2023-03-02T19:23:09.541Z,17.50
2023-03-02T19:25:57.966Z,17.40
2023-03-02T19:28:47.618Z,17.40
2023-03-02T19:31:39.107Z,17.30
2023-03-02T19:34:27.514Z,17.30
2023-03-02T19:37:16.662Z,17.10
2023-03-02T19:40:05.817Z,17.00
2023-03-02T19:42:54.874Z,17.00
2023-03-02T19:45:44.746Z,16.90
2023-03-02T19:48:34.056Z,16.90
2023-03-02T19:51:22.547Z,17.00
2023-03-02T19:54:10.915Z,16.90
2023-03-02T19:56:59.544Z,16.90
2023-03-02T19:59:47.880Z,16.90
2023-03-02T20:02:39.642Z,16.90
2023-03-02T20:05:28.947Z,16.80
2023-03-02T20:08:17.905Z,16.80
2023-03-02T20:11:07.074Z,16.80
2023-03-02T20:13:55.517Z,16.80
2023-03-02T20:16:43.964Z,16.70
2023-03-02T20:19:34.582Z,16.60
2023-03-02T20:22:24.239Z,16.60
2023-03-02T20:25:12.946Z,16.50
2023-03-02T20:28:05.703Z,16.50
2023-03-02T20:30:57.502Z,16.40
2023-03-02T20:33:50.059Z,16.40
2023-03-02T20:36:40.298Z,16.30
2023-03-02T20:39:32.142Z,16.30
2023-03-02T20:42:21.487Z,16.30
2023-03-02T20:45:10.639Z,16.30
2023-03-02T20:47:59.148Z,16.30
2023-03-02T20:50:47.484Z,16.20
2023-03-02T20:53:37.140Z,16.20
2023-03-02T20:56:26.248Z,16.20
2023-03-02T20:59:15.285Z,16.10
2023-03-02T21:02:04.137Z,16.00
2023-03-02T21:04:52.552Z,16.00
2023-03-02T21:07:41.128Z,15.90
2023-03-02T21:10:34.221Z,15.80
2023-03-02T21:13:22.853Z,15.90
2023-03-02T21:16:13.568Z,15.90
2023-03-02T21:19:01.949Z,15.90
2023-03-02T21:21:50.236Z,15.90
2023-03-02T21:24:38.473Z,15.90
2023-03-02T21:27:28.994Z,15.90
2023-03-02T21:30:20.041Z,16.00
2023-03-02T21:33:08.321Z,16.00
2023-03-02T21:35:56.560Z,16.00
2023-03-02T21:38:44.965Z,16.00
2023-03-02T21:41:33.673Z,16.00
2023-03-02T21:44:23.795Z,16.00
2023-03-02T21:47:12.223Z,16.00
2023-03-02T21:50:00.496Z,16.00
2023-03-02T21:52:48.700Z,16.10
2023-03-02T21:55:38.150Z,16.00
2023-03-02T21:58:26.462Z,16.10
2023-03-02T22:01:16.630Z,16.10
2023-03-02T22:04:05.594Z,16.10
2023-03-02T22:06:54.095Z,16.00
2023-03-02T22:09:42.390Z,16.10
2023-03-02T22:12:30.744Z,16.10
2023-03-02T22:15:21.169Z,16.00
2023-03-02T22:18:13.512Z,16.10
2023-03-02T22:21:03.203Z,16.10
2023-03-02T22:23:54.651Z,16.10
2023-03-02T22:26:45.442Z,16.10
2023-03-02T22:29:43.102Z,16.10
2023-03-02T22:32:36.301Z,16.00
2023-03-02T22:35:27.446Z,16.00
2023-03-02T22:38:23.221Z,16.00
2023-03-02T22:41:15.384Z,16.00
2023-03-02T22:44:10.307Z,16.00
2023-03-02T22:46:58.889Z,16.00
2023-03-02T22:49:47.443Z,16.00
2023-03-02T22:52:41.814Z,16.00
2023-03-02T22:55:38.273Z,16.00
2023-03-02T22:58:31.577Z,16.00
2023-03-02T23:01:22.705Z,16.00
2023-03-02T23:04:18.802Z,16.00
2023-03-02T23:07:15.356Z,16.00
2023-03-02T23:10:05.523Z,16.00
2023-03-02T23:12:53.836Z,16.00
2023-03-02T23:15:42.147Z,16.00
2023-03-02T23:18:33.773Z,16.00
2023-03-02T23:21:24.243Z,15.90
2023-03-02T23:24:12.866Z,16.00
2023-03-02T23:27:02.563Z,16.00
2023-03-02T23:29:50.823Z,16.00
2023-03-02T23:32:39.221Z,16.00
2023-03-02T23:35:28.074Z,15.90
2023-03-02T23:38:16.398Z,16.00
2023-03-02T23:41:05.310Z,15.90
2023-03-02T23:43:54.908Z,16.00
2023-03-02T23:46:43.347Z,15.90
2023-03-02T23:49:31.640Z,15.90
2023-03-02T23:52:20.009Z,15.90
2023-03-02T23:55:09.872Z,15.90
2023-03-02T23:57:58.373Z,15.90
